Time;durP1;ratioP1;P1;durP2;ratioP2;P2;SDS_P1;SDS_P2;PMS_P1;PMS_P2;Temp;Humidity;BMP_temperature;BMP_pressure;BME280_temperature;BME280_humidity;BME280_pressure;Samples;Min_cycle;Max_cycle;Signal;HPM_P1;HPM_P2
2023/10/24 00:00:27;;;;;;;11.82;2.90;;;;;;;;;;1041244;28;20366;-73
2023/10/24 00:00:57;;;;;;;2.53;1.50;;;;;;;;;;1041405;28;20424;-73
2023/10/24 00:01:28;;;;;;;1.48;0.73;;;;;;;;;;1041444;28;20037;-73
2023/10/24 00:01:58;;;;;;;10.30;2.53;;;;;;;;;;1042070;28;20022;-73
2023/10/24 00:02:29;;;;;;;5.78;1.42;;;;;;;;;;1041967;28;20021;-73
2023/10/24 00:02:59;;;;;;;5.18;2.17;;;;;;;;;;1042326;28;20032;-73
2023/10/24 00:03:30;;;;;;;4.78;1.10;;;;;;;;;;1041506;28;20414;-73
2023/10/24 00:04:00;;;;;;;0.52;0.52;;;;;;;;;;1042524;28;20022;-73
2023/10/24 00:04:31;;;;;;;3.28;1.17;;;;;;;;;;1042168;28;20511;-74
2023/10/24 00:05:01;;;;;;;1.77;1.30;;;;;;;;;;1042369;28;20029;-74
2023/10/24 00:05:32;;;;;;;1.80;1.30;;;;;;;;;;1042115;28;20473;-74
2023/10/24 00:06:03;;;;;;;2.28;2.17;;;;;;;;;;1042142;28;20056;-74
2023/10/24 00:06:33;;;;;;;3.30;0.73;;;;;;;;;;1042043;28;20059;-74
2023/10/24 00:07:04;;;;;;;1.38;0.98;;;;;;;;;;1040856;28;20017;-74
2023/10/24 00:07:34;;;;;;;1.73;1.48;;;;;;;;;;1040710;28;20028;-73
2023/10/24 00:08:05;;;;;;;2.83;2.70;;;;;;;;;;1042672;28;20492;-73
2023/10/24 00:08:35;;;;;;;2.00;1.88;;;;;;;;;;1042099;28;20060;-73
2023/10/24 00:09:06;;;;;;;1.42;1.35;;;;;;;;;;1042144;28;20032;-73
2023/10/24 00:09:36;;;;;;;5.60;1.70;;;;;;;;;;1042229;28;20055;-73
2023/10/24 00:10:07;;;;;;;1.00;0.98;;;;;;;;;;1042365;28;20017;-73
2023/10/24 00:10:37;;;;;;;5.22;2.33;;;;;;;;;;1042525;28;20132;-73
2023/10/24 00:11:08;;;;;;;2.15;2.05;;;;;;;;;;1041859;28;20520;-73
2023/10/24 00:11:38;;;;;;;1.30;1.20;;;;;;;;;;1041918;28;20106;-73
2023/10/24 00:12:09;;;;;;;0.95;0.95;;;;;;;;;;1041949;28;20466;-73
2023/10/24 00:12:39;;;;;;;3.60;1.75;;;;;;;;;;1042008;28;20457;-73
2023/10/24 00:13:10;;;;;;;3.30;2.03;;;;;;;;;;1040345;28;20436;-73
2023/10/24 00:13:40;;;;;;;3.05;2.60;;;;;;;;;;1042328;28;20108;-73
2023/10/24 00:14:10;;;;;;;3.53;2.72;;;;;;;;;;1042211;28;20017;-73
2023/10/24 00:14:42;;;;;;;1.48;1.38;;;;;;;;;;1041832;28;20021;-74
2023/10/24 00:15:12;;;;;;;5.00;2.72;;;;;;;;;;1040106;28;20022;-74
2023/10/24 00:15:43;;;;;;;5.18;2.17;;;;;;;;;;1041692;28;20052;-74
2023/10/24 00:16:13;;;;;;;2.03;1.65;;;;;;;;;;1041752;28;20059;-74
2023/10/24 00:16:44;;;;;;;27.45;4.05;;;;;;;;;;1042071;28;20504;-74
2023/10/24 00:17:14;;;;;;;6.45;2.80;;;;;;;;;;1037603;28;20144;-74
2023/10/24 00:17:45;;;;;;;9.80;5.03;;;;;;;;;;1041809;28;20020;-74
2023/10/24 00:18:15;;;;;;;1.05;1.05;;;;;;;;;;1041825;28;20029;-73
2023/10/24 00:18:46;;;;;;;2.05;1.08;;;;;;;;;;1042014;28;20023;-73
2023/10/24 00:19:17;;;;;;;2.88;1.90;;;;;;;;;;1041792;28;20036;-73
2023/10/24 00:19:47;;;;;;;4.32;2.45;;;;;;;;;;1042402;28;20047;-73
2023/10/24 00:20:18;;;;;;;3.55;1.20;;;;;;;;;;1042079;28;20385;-73
2023/10/24 00:20:48;;;;;;;6.57;2.08;;;;;;;;;;1041896;28;20017;-73
2023/10/24 00:21:19;;;;;;;4.57;2.00;;;;;;;;;;1040711;28;20021;-73
2023/10/24 00:21:49;;;;;;;8.90;3.28;;;;;;;;;;1041880;28;20048;-73
2023/10/24 00:22:20;;;;;;;4.00;1.95;;;;;;;;;;1041668;28;20029;-73
2023/10/24 00:22:50;;;;;;;0.85;0.82;;;;;;;;;;1041970;28;20016;-73
2023/10/24 00:23:20;;;;;;;5.05;2.47;;;;;;;;;;1041907;28;20021;-73
2023/10/24 00:23:52;;;;;;;1.25;1.15;;;;;;;;;;1042233;28;20396;-73
2023/10/24 00:24:22;;;;;;;0.30;0.30;;;;;;;;;;1041708;28;20029;-73
2023/10/24 00:24:52;;;;;;;2.67;1.63;;;;;;;;;;1041928;28;20477;-74
2023/10/24 00:25:23;;;;;;;3.95;2.78;;;;;;;;;;1039166;28;20026;-74
2023/10/24 00:25:53;;;;;;;2.03;1.42;;;;;;;;;;1038900;28;20121;-74
2023/10/24 00:26:24;;;;;;;1.27;1.10;;;;;;;;;;1041809;28;20036;-74
2023/10/24 00:26:55;;;;;;;4.82;2.03;;;;;;;;;;1039482;28;20025;-74
2023/10/24 00:27:26;;;;;;;21.55;2.45;;;;;;;;;;1037448;28;20025;-73
2023/10/24 00:27:56;;;;;;;1.73;1.42;;;;;;;;;;1037957;28;20534;-73
2023/10/24 00:28:26;;;;;;;1.00;1.00;;;;;;;;;;1041710;28;20393;-73
2023/10/24 00:28:57;;;;;;;10.68;3.00;;;;;;;;;;1042091;28;20024;-73
2023/10/24 00:29:28;;;;;;;0.93;0.90;;;;;;;;;;1042077;28;20025;-73
2023/10/24 00:29:58;;;;;;;9.55;3.03;;;;;;;;;;1042379;28;20017;-73
2023/10/24 00:30:29;;;;;;;2.55;1.02;;;;;;;;;;1042147;28;20024;-73
2023/10/24 00:30:59;;;;;;;6.55;2.35;;;;;;;;;;1041799;28;20067;-73
2023/10/24 00:31:30;;;;;;;6.10;1.95;;;;;;;;;;1042028;28;20112;-73
2023/10/24 00:32:00;;;;;;;3.20;2.63;;;;;;;;;;1042312;28;20508;-73
2023/10/24 00:32:31;;;;;;;3.70;3.35;;;;;;;;;;1042183;28;20167;-73
2023/10/24 00:33:01;;;;;;;1.40;1.35;;;;;;;;;;1042086;28;20056;-73
2023/10/24 00:33:32;;;;;;;0.63;0.63;;;;;;;;;;1041733;28;20131;-73
2023/10/24 00:34:02;;;;;;;2.13;1.83;;;;;;;;;;1042274;28;20026;-73
2023/10/24 00:34:33;;;;;;;21.63;1.40;;;;;;;;;;1042202;28;20057;-73
2023/10/24 00:35:03;;;;;;;4.85;2.55;;;;;;;;;;1042253;28;20537;-73
2023/10/24 00:35:34;;;;;;;1.13;0.98;;;;;;;;;;1041000;28;20029;-73
2023/10/24 00:36:05;;;;;;;1.88;1.67;;;;;;;;;;1042170;28;20017;-73
2023/10/24 00:36:35;;;;;;;4.38;3.03;;;;;;;;;;1041723;28;20028;-73
2023/10/24 00:37:06;;;;;;;3.40;1.95;;;;;;;;;;1041683;28;20021;-73
2023/10/24 00:37:36;;;;;;;3.03;2.17;;;;;;;;;;1041683;28;20485;-74
2023/10/24 00:38:06;;;;;;;1.58;1.48;;;;;;;;;;1042050;28;20120;-73
2023/10/24 00:38:37;;;;;;;2.90;2.65;;;;;;;;;;1041437;28;20139;-73
2023/10/24 00:39:08;;;;;;;4.53;1.83;;;;;;;;;;1040864;28;20021;-73
2023/10/24 00:39:38;;;;;;;0.57;0.35;;;;;;;;;;1041698;28;20099;-73
2023/10/24 00:40:09;;;;;;;1.17;1.05;;;;;;;;;;1041840;28;20025;-73
2023/10/24 00:40:40;;;;;;;0.75;0.75;;;;;;;;;;1041731;28;20078;-73
2023/10/24 00:41:10;;;;;;;3.78;3.35;;;;;;;;;;1041721;28;20028;-73
2023/10/24 00:41:41;;;;;;;1.60;1.50;;;;;;;;;;1041448;28;20393;-73
2023/10/24 00:42:11;;;;;;;1.67;1.58;;;;;;;;;;1041956;28;20090;-73
2023/10/24 00:42:42;;;;;;;3.90;3.33;;;;;;;;;;1041647;28;20091;-73
2023/10/24 00:43:12;;;;;;;1.20;1.10;;;;;;;;;;1041601;28;20148;-73
2023/10/24 00:43:43;;;;;;;2.28;1.65;;;;;;;;;;1042166;28;20570;-73
2023/10/24 00:44:13;;;;;;;17.33;4.07;;;;;;;;;;1041653;28;20072;-73
2023/10/24 00:44:43;;;;;;;6.18;3.25;;;;;;;;;;1041862;28;20469;-73
2023/10/24 00:45:14;;;;;;;6.13;3.42;;;;;;;;;;1041609;28;20025;-73
2023/10/24 00:45:44;;;;;;;4.55;3.05;;;;;;;;;;1041615;28;20024;-73
2023/10/24 00:46:15;;;;;;;2.47;2.30;;;;;;;;;;1041689;28;20070;-73
2023/10/24 00:46:46;;;;;;;0.30;0.30;;;;;;;;;;1041892;28;20021;-73
2023/10/24 00:47:17;;;;;;;9.07;1.98;;;;;;;;;;1040620;28;20468;-73
2023/10/24 00:47:47;;;;;;;0.63;0.63;;;;;;;;;;1040459;28;20025;-73
2023/10/24 00:48:18;;;;;;;1.90;1.20;;;;;;;;;;1041709;28;20082;-73
2023/10/24 00:48:49;;;;;;;2.90;1.65;;;;;;;;;;1042197;28;20108;-73
2023/10/24 00:49:19;;;;;;;3.25;1.70;;;;;;;;;;1040703;28;20020;-73
2023/10/24 00:49:51;;;;;;;1.85;1.75;;;;;;;;;;1042071;28;20385;-73
2023/10/24 00:50:21;;;;;;;1.05;1.00;;;;;;;;;;1041956;28;20112;-73
2023/10/24 00:50:52;;;;;;;20.83;1.75;;;;;;;;;;1042107;28;20297;-73
2023/10/24 00:51:22;;;;;;;3.95;2.33;;;;;;;;;;1042243;28;20067;-73
2023/10/24 00:51:55;;;;;;;0.85;0.80;;;;;;;;;;1041122;28;20087;-73
2023/10/24 00:52:26;;;;;;;2.90;2.70;;;;;;;;;;1041584;28;20045;-73
2023/10/24 00:52:56;;;;;;;0.50;0.50;;;;;;;;;;1041977;28;20026;-73
2023/10/24 00:53:27;;;;;;;1.45;1.27;;;;;;;;;;1041519;28;20056;-73
2023/10/24 00:53:58;;;;;;;2.75;0.90;;;;;;;;;;1041254;28;20074;-73
2023/10/24 00:54:29;;;;;;;1.05;1.05;;;;;;;;;;1042005;28;20024;-73
2023/10/24 00:55:00;;;;;;;4.43;2.28;;;;;;;;;;1042878;28;20112;-73
2023/10/24 00:55:31;;;;;;;1.30;1.15;;;;;;;;;;1042051;28;20614;-73
2023/10/24 00:56:02;;;;;;;1.92;1.83;;;;;;;;;;1040955;28;20101;-73
2023/10/24 00:56:32;;;;;;;3.05;2.10;;;;;;;;;;1042268;28;20029;-73
2023/10/24 00:57:04;;;;;;;14.88;1.95;;;;;;;;;;1042075;28;20125;-73
2023/10/24 00:57:35;;;;;;;1.55;1.45;;;;;;;;;;1040644;28;20501;-73
2023/10/24 00:58:07;;;;;;;2.33;2.15;;;;;;;;;;1041948;28;20025;-73
2023/10/24 00:58:38;;;;;;;1.90;1.48;;;;;;;;;;1041382;28;20021;-73
2023/10/24 00:59:09;;;;;;;4.68;1.00;;;;;;;;;;1041985;28;20020;-73
2023/10/24 00:59:39;;;;;;;13.90;5.03;;;;;;;;;;1039864;28;20017;-73
2023/10/24 01:00:10;;;;;;;0.68;0.68;;;;;;;;;;1041700;28;20548;-73
2023/10/24 01:00:42;;;;;;;1.98;1.88;;;;;;;;;;1042437;28;20527;-73
2023/10/24 01:01:13;;;;;;;1.08;1.05;;;;;;;;;;1041170;28;20499;-73
2023/10/24 01:01:44;;;;;;;1.27;1.25;;;;;;;;;;1041355;28;20049;-73
2023/10/24 01:02:15;;;;;;;1.70;1.63;;;;;;;;;;1040449;28;20032;-73
2023/10/24 01:02:45;;;;;;;3.33;0.73;;;;;;;;;;1037046;28;20046;-73
2023/10/24 01:03:16;;;;;;;3.72;1.40;;;;;;;;;;1037865;28;20017;-73
2023/10/24 01:03:47;;;;;;;2.05;0.57;;;;;;;;;;1033211;28;20638;-73
2023/10/24 01:04:18;;;;;;;1.95;1.85;;;;;;;;;;1033877;28;20505;-73
2023/10/24 01:04:51;;;;;;;2.65;2.47;;;;;;;;;;1036877;28;20116;-74
2023/10/24 01:05:21;;;;;;;0.30;0.30;;;;;;;;;;1039908;28;20025;-73
2023/10/24 01:05:52;;;;;;;2.72;1.45;;;;;;;;;;1041711;28;20393;-73
2023/10/24 01:06:22;;;;;;;6.55;1.38;;;;;;;;;;1041806;28;20509;-73
2023/10/24 01:06:53;;;;;;;2.20;1.95;;;;;;;;;;1041948;28;20025;-73
2023/10/24 01:07:23;;;;;;;1.27;1.17;;;;;;;;;;1041873;28;20029;-73
2023/10/24 01:07:54;;;;;;;2.60;1.50;;;;;;;;;;1042784;28;20037;-73
2023/10/24 01:08:24;;;;;;;9.85;1.67;;;;;;;;;;1041636;28;20397;-73
2023/10/24 01:08:54;;;;;;;1.45;1.35;;;;;;;;;;1041923;28;20056;-73
2023/10/24 01:09:25;;;;;;;7.07;3.08;;;;;;;;;;1041964;28;20108;-73
2023/10/24 01:09:56;;;;;;;2.83;1.45;;;;;;;;;;1041880;28;20495;-73
2023/10/24 01:10:27;;;;;;;1.55;1.45;;;;;;;;;;1041662;28;20029;-73
2023/10/24 01:10:57;;;;;;;6.93;2.28;;;;;;;;;;1041625;28;20084;-73
2023/10/24 01:11:28;;;;;;;8.07;2.30;;;;;;;;;;1041777;28;20083;-73
2023/10/24 01:11:59;;;;;;;2.35;1.17;;;;;;;;;;1041949;28;20026;-73
2023/10/24 01:12:29;;;;;;;0.93;0.88;;;;;;;;;;1041782;28;20018;-73
2023/10/24 01:13:00;;;;;;;13.88;3.38;;;;;;;;;;1041219;28;20028;-73
2023/10/24 01:13:31;;;;;;;2.33;2.13;;;;;;;;;;1041830;28;20022;-73
2023/10/24 01:14:02;;;;;;;12.70;1.95;;;;;;;;;;1041116;28;20027;-73
2023/10/24 01:14:32;;;;;;;2.90;2.15;;;;;;;;;;1041343;28;20025;-73
2023/10/24 01:15:04;;;;;;;1.70;1.60;;;;;;;;;;1041766;28;20048;-73
2023/10/24 01:15:34;;;;;;;3.72;1.85;;;;;;;;;;1040598;28;20128;-73
2023/10/24 01:16:05;;;;;;;1.38;1.35;;;;;;;;;;1042004;28;20520;-73
2023/10/24 01:16:41;;;;;;;1.80;1.20;;;;;;;;;;1041897;28;20449;-73
2023/10/24 01:17:12;;;;;;;5.57;1.38;;;;;;;;;;1040807;28;20052;-74
2023/10/24 01:17:49;;;;;;;9.85;2.90;;;;;;;;;;1040088;28;20444;-73
2023/10/24 01:18:19;;;;;;;4.63;3.03;;;;;;;;;;1042086;28;20017;-73
2023/10/24 01:18:50;;;;;;;3.78;1.40;;;;;;;;;;1041830;28;20025;-73
2023/10/24 01:19:21;;;;;;;6.72;2.58;;;;;;;;;;1041744;28;20103;-73
2023/10/24 01:19:51;;;;;;;2.30;1.20;;;;;;;;;;1041140;28;20108;-73
2023/10/24 01:20:22;;;;;;;3.63;1.95;;;;;;;;;;1041555;28;20021;-73
2023/10/24 01:20:53;;;;;;;4.53;2.50;;;;;;;;;;1041629;28;20025;-73
2023/10/24 01:21:23;;;;;;;0.80;0.80;;;;;;;;;;1040142;28;20029;-73
2023/10/24 01:21:54;;;;;;;3.42;1.48;;;;;;;;;;1040246;28;20087;-73
2023/10/24 01:22:24;;;;;;;0.70;0.47;;;;;;;;;;1039699;28;20032;-74
2023/10/24 01:22:55;;;;;;;2.60;1.38;;;;;;;;;;1036465;28;20107;-74
2023/10/24 01:23:31;;;;;;;0.98;0.85;;;;;;;;;;1036308;28;20022;-75
2023/10/24 01:24:01;;;;;;;1.45;1.35;;;;;;;;;;1038284;28;20017;-76
2023/10/24 01:24:32;;;;;;;3.58;2.08;;;;;;;;;;1039095;28;20033;-74
2023/10/24 01:25:08;;;;;;;9.15;2.45;;;;;;;;;;1039093;28;20029;-73
2023/10/24 01:25:42;;;;;;;0.40;0.40;;;;;;;;;;1039673;28;20908;-74
2023/10/24 01:26:14;;;;;;;3.10;2.40;;;;;;;;;;1039168;28;20025;-74
2023/10/24 01:26:44;;;;;;;0.95;0.63;;;;;;;;;;1039827;28;20408;-74
2023/10/24 01:27:16;;;;;;;0.75;0.70;;;;;;;;;;1040817;28;20026;-74
2023/10/24 01:27:53;;;;;;;1.63;1.52;;;;;;;;;;1040831;28;20504;-74
2023/10/24 01:28:24;;;;;;;0.75;0.75;;;;;;;;;;1037449;28;20029;-74
2023/10/24 01:28:55;;;;;;;4.13;1.90;;;;;;;;;;1039439;28;20389;-74
2023/10/24 01:29:25;;;;;;;3.40;2.10;;;;;;;;;;1039037;28;20024;-74
2023/10/24 01:29:56;;;;;;;2.50;1.55;;;;;;;;;;1035527;28;20452;-74
2023/10/24 01:30:26;;;;;;;0.60;0.60;;;;;;;;;;1038546;28;20116;-74
2023/10/24 01:30:57;;;;;;;2.80;2.00;;;;;;;;;;1034626;28;20033;-73
2023/10/24 01:31:27;;;;;;;0.75;0.75;;;;;;;;;;1036589;28;20103;-73
2023/10/24 01:31:58;;;;;;;4.10;2.30;;;;;;;;;;1039662;28;20044;-73
2023/10/24 01:32:31;;;;;;;2.17;1.30;;;;;;;;;;1034429;28;20026;-74
2023/10/24 01:33:02;;;;;;;1.50;1.40;;;;;;;;;;1039594;28;20439;-73
2023/10/24 01:33:32;;;;;;;0.63;0.57;;;;;;;;;;1038126;28;20383;-74
2023/10/24 01:34:03;;;;;;;2.38;1.38;;;;;;;;;;1034877;28;20552;-74
2023/10/24 01:34:34;;;;;;;2.50;1.30;;;;;;;;;;1039451;28;20064;-74
2023/10/24 01:35:05;;;;;;;1.73;1.63;;;;;;;;;;1038452;28;20020;-74
2023/10/24 01:35:35;;;;;;;0.57;0.57;;;;;;;;;;1039034;28;20112;-74
2023/10/24 01:36:07;;;;;;;1.77;1.70;;;;;;;;;;1041224;28;20032;-74
2023/10/24 01:36:37;;;;;;;1.95;1.52;;;;;;;;;;1040067;28;20381;-73
2023/10/24 01:37:09;;;;;;;8.20;3.65;;;;;;;;;;1038330;28;20029;-73
2023/10/24 01:37:40;;;;;;;0.60;0.60;;;;;;;;;;1038557;28;20029;-74
2023/10/24 01:38:10;;;;;;;3.03;1.00;;;;;;;;;;1035611;28;20180;-73
2023/10/24 01:38:41;;;;;;;5.57;2.40;;;;;;;;;;1037442;28;20052;-73
2023/10/24 01:39:11;;;;;;;3.10;1.83;;;;;;;;;;1037875;28;20025;-74
2023/10/24 01:39:42;;;;;;;0.73;0.73;;;;;;;;;;1037770;28;20120;-74
2023/10/24 01:40:12;;;;;;;2.90;2.70;;;;;;;;;;1037874;28;20107;-74
2023/10/24 01:40:43;;;;;;;0.80;0.80;;;;;;;;;;1038574;28;20599;-72
2023/10/24 01:41:13;;;;;;;0.98;0.90;;;;;;;;;;1038668;28;20029;-72
2023/10/24 01:41:44;;;;;;;1.58;1.50;;;;;;;;;;1039372;28;20143;-73
2023/10/24 01:42:14;;;;;;;0.55;0.55;;;;;;;;;;1037797;28;20131;-73
2023/10/24 01:42:45;;;;;;;0.25;0.25;;;;;;;;;;1033242;28;20030;-73
2023/10/24 01:43:15;;;;;;;1.20;1.10;;;;;;;;;;1035880;28;20477;-73
2023/10/24 01:43:46;;;;;;;2.80;1.75;;;;;;;;;;1039367;28;20022;-73
2023/10/24 01:44:16;;;;;;;3.03;2.78;;;;;;;;;;1032445;28;21301;-73
2023/10/24 01:44:47;;;;;;;2.80;2.60;;;;;;;;;;1038248;28;20506;-73
2023/10/24 01:45:17;;;;;;;3.83;2.83;;;;;;;;;;1039574;28;20504;-74
2023/10/24 01:45:48;;;;;;;0.65;0.65;;;;;;;;;;1035678;28;20036;-74
2023/10/24 01:46:18;;;;;;;1.83;1.73;;;;;;;;;;1037636;28;20479;-73
2023/10/24 01:46:49;;;;;;;8.38;2.72;;;;;;;;;;1038285;28;20487;-73
2023/10/24 01:47:19;;;;;;;2.17;1.83;;;;;;;;;;1035737;28;20022;-73
2023/10/24 01:47:50;;;;;;;1.20;1.10;;;;;;;;;;1036680;28;20044;-73
2023/10/24 01:48:20;;;;;;;14.25;2.05;;;;;;;;;;1035085;28;20113;-72
2023/10/24 01:48:51;;;;;;;0.73;0.73;;;;;;;;;;1035599;28;20029;-73
2023/10/24 01:49:21;;;;;;;1.35;0.63;;;;;;;;;;1038774;28;20075;-73
2023/10/24 01:49:52;;;;;;;20.75;1.75;;;;;;;;;;1035855;28;20100;-73
2023/10/24 01:50:22;;;;;;;0.50;0.50;;;;;;;;;;1034627;28;20074;-73
2023/10/24 01:50:53;;;;;;;4.78;1.52;;;;;;;;;;1034404;28;20067;-73
2023/10/24 01:51:24;;;;;;;2.67;0.80;;;;;;;;;;1034554;28;20026;-73
2023/10/24 01:52:10;;;;;;;0.82;0.82;;;;;;;;;;1025043;28;20051;-73
2023/10/24 01:52:41;;;;;;;2.50;0.85;;;;;;;;;;1039244;28;20087;-73
2023/10/24 01:53:12;;;;;;;1.35;1.25;;;;;;;;;;1040567;28;20393;-75
2023/10/24 01:53:42;;;;;;;2.55;1.85;;;;;;;;;;1038136;28;20607;-74
2023/10/24 01:54:12;;;;;;;0.65;0.65;;;;;;;;;;1039624;28;20035;-74
2023/10/24 01:54:43;;;;;;;6.82;2.28;;;;;;;;;;1040815;28;20026;-74
2023/10/24 01:55:13;;;;;;;1.83;1.70;;;;;;;;;;1041440;28;20020;-74
2023/10/24 01:55:44;;;;;;;2.10;0.32;;;;;;;;;;1038576;28;20084;-74
2023/10/24 01:56:14;;;;;;;1.05;1.05;;;;;;;;;;1037613;28;20120;-74
2023/10/24 01:56:45;;;;;;;0.45;0.45;;;;;;;;;;1042361;28;20052;-74
2023/10/24 01:57:15;;;;;;;1.00;0.90;;;;;;;;;;1039541;28;20026;-73
2023/10/24 01:57:46;;;;;;;2.70;2.50;;;;;;;;;;1033904;28;20374;-74
2023/10/24 01:58:16;;;;;;;1.98;0.90;;;;;;;;;;1033990;28;20038;-74
2023/10/24 01:58:47;;;;;;;12.07;2.25;;;;;;;;;;1034433;28;20551;-74
2023/10/24 01:59:17;;;;;;;2.25;1.10;;;;;;;;;;1039235;28;20508;-75
2023/10/24 01:59:48;;;;;;;1.17;1.17;;;;;;;;;;1038139;28;20383;-75
2023/10/24 02:00:20;;;;;;;3.08;0.90;;;;;;;;;;1041611;28;20124;-76
2023/10/24 02:00:51;;;;;;;0.95;0.95;;;;;;;;;;1040490;28;20028;-75
2023/10/24 02:01:21;;;;;;;3.45;2.20;;;;;;;;;;1039303;28;20028;-74
2023/10/24 02:01:52;;;;;;;3.03;1.17;;;;;;;;;;1037957;28;20025;-73
2023/10/24 02:02:22;;;;;;;2.28;1.98;;;;;;;;;;1039091;28;21441;-74
2023/10/24 02:02:53;;;;;;;1.73;1.58;;;;;;;;;;1039534;28;20029;-74
2023/10/24 02:03:24;;;;;;;5.90;2.35;;;;;;;;;;1035334;28;20570;-72
2023/10/24 02:03:55;;;;;;;3.17;2.13;;;;;;;;;;1036040;28;20076;-74
2023/10/24 02:04:26;;;;;;;1.35;1.05;;;;;;;;;;1033693;28;20533;-72
2023/10/24 02:04:57;;;;;;;6.75;2.92;;;;;;;;;;1034936;28;20025;-74
2023/10/24 02:05:27;;;;;;;2.55;2.38;;;;;;;;;;1036504;28;20071;-74
2023/10/24 02:05:58;;;;;;;1.45;0.93;;;;;;;;;;1041894;28;20114;-74
2023/10/24 02:06:28;;;;;;;7.93;1.42;;;;;;;;;;1035537;28;20026;-74
2023/10/24 02:06:59;;;;;;;13.35;2.10;;;;;;;;;;1038817;28;20017;-74
2023/10/24 02:07:29;;;;;;;1.83;1.48;;;;;;;;;;1037219;28;20028;-74
2023/10/24 02:08:00;;;;;;;1.10;0.68;;;;;;;;;;1038216;28;20034;-75
2023/10/24 02:08:30;;;;;;;2.42;2.17;;;;;;;;;;1034129;28;20072;-74
2023/10/24 02:09:01;;;;;;;2.25;1.73;;;;;;;;;;1033887;28;21077;-72
2023/10/24 02:09:31;;;;;;;3.10;1.55;;;;;;;;;;1038949;28;20025;-74
2023/10/24 02:10:03;;;;;;;16.83;1.05;;;;;;;;;;1037614;28;20025;-74
2023/10/24 02:10:33;;;;;;;1.27;1.13;;;;;;;;;;1037689;28;20543;-74
2023/10/24 02:11:04;;;;;;;0.90;0.60;;;;;;;;;;1039831;28;20017;-74
2023/10/24 02:11:34;;;;;;;1.92;1.83;;;;;;;;;;1036393;28;20049;-74
2023/10/24 02:12:05;;;;;;;7.65;3.35;;;;;;;;;;1038682;28;20076;-74
2023/10/24 02:12:36;;;;;;;18.77;2.28;;;;;;;;;;1039805;28;20029;-75
2023/10/24 02:13:06;;;;;;;3.50;1.65;;;;;;;;;;1035062;28;20060;-75
2023/10/24 02:13:37;;;;;;;2.67;2.47;;;;;;;;;;1037709;28;20088;-74
2023/10/24 02:14:07;;;;;;;5.03;2.50;;;;;;;;;;1040038;28;20028;-74
2023/10/24 02:14:38;;;;;;;4.03;3.50;;;;;;;;;;1038235;28;20408;-75
2023/10/24 02:15:09;;;;;;;0.98;0.98;;;;;;;;;;1039949;28;20028;-74
2023/10/24 02:15:39;;;;;;;1.67;1.15;;;;;;;;;;1038060;28;20435;-74
2023/10/24 02:16:10;;;;;;;2.03;1.92;;;;;;;;;;1039991;28;20035;-74
2023/10/24 02:16:40;;;;;;;7.97;2.50;;;;;;;;;;1039800;28;20108;-74
2023/10/24 02:17:14;;;;;;;1.33;1.27;;;;;;;;;;1036956;28;20082;-74
2023/10/24 02:17:45;;;;;;;2.03;1.42;;;;;;;;;;1036694;28;20021;-74
2023/10/24 02:18:15;;;;;;;7.90;3.40;;;;;;;;;;1038337;28;20075;-75
2023/10/24 02:18:46;;;;;;;12.73;2.00;;;;;;;;;;1039169;28;20469;-74
2023/10/24 02:19:16;;;;;;;0.85;0.85;;;;;;;;;;1037971;28;20169;-74
2023/10/24 02:19:47;;;;;;;5.43;2.28;;;;;;;;;;1039354;28;20155;-75
2023/10/24 02:20:17;;;;;;;2.22;1.98;;;;;;;;;;1031142;28;20413;-75
2023/10/24 02:20:48;;;;;;;1.92;1.80;;;;;;;;;;1036101;28;20028;-74
2023/10/24 02:21:18;;;;;;;1.85;1.00;;;;;;;;;;1033806;28;20925;-74
2023/10/24 02:21:49;;;;;;;2.53;2.25;;;;;;;;;;1036770;28;20022;-74
2023/10/24 02:22:20;;;;;;;1.90;1.77;;;;;;;;;;1038731;28;20125;-74
2023/10/24 02:22:51;;;;;;;3.17;1.88;;;;;;;;;;1039389;28;20496;-74
2023/10/24 02:23:21;;;;;;;2.97;2.30;;;;;;;;;;1038960;28;20159;-74
2023/10/24 02:23:55;;;;;;;4.80;2.35;;;;;;;;;;1035070;28;20033;-74
2023/10/24 02:24:26;;;;;;;1.45;1.35;;;;;;;;;;1036442;28;20358;-75
2023/10/24 02:24:56;;;;;;;1.80;1.02;;;;;;;;;;1032426;28;20471;-73
2023/10/24 02:25:27;;;;;;;0.80;0.52;;;;;;;;;;1034770;28;20025;-73
2023/10/24 02:25:57;;;;;;;7.30;2.45;;;;;;;;;;1038067;28;20137;-75
2023/10/24 02:26:28;;;;;;;3.28;2.38;;;;;;;;;;1035247;28;20029;-74
2023/10/24 02:26:59;;;;;;;4.10;1.98;;;;;;;;;;1034456;28;20036;-74
2023/10/24 02:27:29;;;;;;;2.97;2.63;;;;;;;;;;1034031;28;20041;-75
2023/10/24 02:28:00;;;;;;;2.25;1.83;;;;;;;;;;1032471;28;20034;-74
2023/10/24 02:28:31;;;;;;;4.30;0.75;;;;;;;;;;1034612;28;20026;-74
2023/10/24 02:29:01;;;;;;;2.70;2.50;;;;;;;;;;1039145;28;20103;-74
2023/10/24 02:29:33;;;;;;;0.52;0.45;;;;;;;;;;1035555;28;20520;-75
2023/10/24 02:30:04;;;;;;;1.45;1.10;;;;;;;;;;1033238;28;20648;-75
2023/10/24 02:30:37;;;;;;;0.82;0.77;;;;;;;;;;1032706;28;20030;-75
2023/10/24 02:31:08;;;;;;;8.65;5.30;;;;;;;;;;1034535;28;20032;-74
2023/10/24 02:31:38;;;;;;;1.85;1.13;;;;;;;;;;1037256;28;20032;-74
2023/10/24 02:32:09;;;;;;;2.50;2.08;;;;;;;;;;1036124;28;20140;-75
2023/10/24 02:32:39;;;;;;;1.55;1.38;;;;;;;;;;1035480;28;20352;-74
2023/10/24 02:33:10;;;;;;;0.43;0.43;;;;;;;;;;1038344;28;20116;-74
2023/10/24 02:33:41;;;;;;;3.33;1.38;;;;;;;;;;1038319;28;20113;-75
2023/10/24 02:34:11;;;;;;;5.63;2.22;;;;;;;;;;1036399;28;20026;-75
2023/10/24 02:34:41;;;;;;;5.72;1.50;;;;;;;;;;1034312;28;20529;-75
2023/10/24 02:35:12;;;;;;;3.35;1.45;;;;;;;;;;1031697;28;20038;-74
2023/10/24 02:35:42;;;;;;;0.73;0.55;;;;;;;;;;1037158;28;20155;-75
2023/10/24 02:36:16;;;;;;;1.25;1.15;;;;;;;;;;1038021;28;20040;-75
2023/10/24 02:36:46;;;;;;;7.13;2.28;;;;;;;;;;1038333;28;20076;-75
2023/10/24 02:37:17;;;;;;;1.80;1.35;;;;;;;;;;1036579;28;20049;-74
2023/10/24 02:37:47;;;;;;;1.42;1.33;;;;;;;;;;1034331;28;20461;-74
2023/10/24 02:38:18;;;;;;;0.10;0.10;;;;;;;;;;1030653;28;20025;-75
2023/10/24 02:38:49;;;;;;;0.10;0.10;;;;;;;;;;1035071;28;20064;-75
2023/10/24 02:39:20;;;;;;;0.80;0.73;;;;;;;;;;1034294;28;20042;-75
2023/10/24 02:39:51;;;;;;;17.80;3.58;;;;;;;;;;1035596;28;20040;-76
2023/10/24 02:40:24;;;;;;;2.15;1.75;;;;;;;;;;1034191;28;20014;-75
2023/10/24 02:40:55;;;;;;;0.57;0.47;;;;;;;;;;1035334;28;20524;-75
2023/10/24 02:41:26;;;;;;;3.78;1.40;;;;;;;;;;1039908;28;20025;-74
2023/10/24 02:41:57;;;;;;;3.35;1.38;;;;;;;;;;1039260;28;20022;-73
2023/10/24 02:42:28;;;;;;;3.17;1.75;;;;;;;;;;1038041;28;20018;-74
2023/10/24 02:42:59;;;;;;;6.75;1.48;;;;;;;;;;1034046;28;20062;-74
2023/10/24 02:43:29;;;;;;;1.58;1.48;;;;;;;;;;1031847;28;20018;-74
2023/10/24 02:44:00;;;;;;;0.32;0.32;;;;;;;;;;1026539;28;20549;-74
2023/10/24 02:44:31;;;;;;;2.10;1.45;;;;;;;;;;1031151;28;20245;-74
2023/10/24 02:45:01;;;;;;;2.17;2.03;;;;;;;;;;1035304;28;20136;-74
2023/10/24 02:45:32;;;;;;;5.20;1.17;;;;;;;;;;1038619;28;20136;-74
2023/10/24 02:46:04;;;;;;;2.03;0.80;;;;;;;;;;1032285;28;20505;-74
2023/10/24 02:46:35;;;;;;;0.85;0.45;;;;;;;;;;1030620;28;20052;-75
2023/10/24 02:47:05;;;;;;;0.63;0.63;;;;;;;;;;1031774;28;20041;-75
2023/10/24 02:47:36;;;;;;;0.98;0.98;;;;;;;;;;1033806;28;20071;-75
2023/10/24 02:48:06;;;;;;;0.55;0.55;;;;;;;;;;1031861;28;20106;-75
2023/10/24 02:48:37;;;;;;;1.02;0.52;;;;;;;;;;1029669;28;20124;-74
2023/10/24 02:49:07;;;;;;;1.45;1.10;;;;;;;;;;1033276;28;20961;-75
2023/10/24 02:49:38;;;;;;;0.10;0.10;;;;;;;;;;1032585;28;20581;-75
2023/10/24 02:50:08;;;;;;;0.80;0.80;;;;;;;;;;1034631;28;20033;-75
2023/10/24 02:50:41;;;;;;;2.30;1.48;;;;;;;;;;1035098;28;20029;-75
2023/10/24 02:51:11;;;;;;;3.50;1.05;;;;;;;;;;1036210;28;20245;-75
2023/10/24 02:51:42;;;;;;;4.43;3.00;;;;;;;;;;1035994;28;20049;-75
2023/10/24 02:52:13;;;;;;;5.72;1.23;;;;;;;;;;1038509;28;20508;-74
2023/10/24 02:52:43;;;;;;;2.55;1.95;;;;;;;;;;1036953;28;20041;-75
2023/10/24 02:53:15;;;;;;;1.42;1.35;;;;;;;;;;1034211;28;20022;-74
2023/10/24 02:53:46;;;;;;;3.20;1.10;;;;;;;;;;1038000;28;20059;-75
2023/10/24 02:54:16;;;;;;;0.60;0.60;;;;;;;;;;1037091;28;20039;-75
2023/10/24 02:54:47;;;;;;;10.95;2.67;;;;;;;;;;1037218;28;20120;-73
2023/10/24 02:55:17;;;;;;;0.98;0.82;;;;;;;;;;1037246;28;20171;-74
2023/10/24 02:55:48;;;;;;;1.65;1.38;;;;;;;;;;1036551;28;20828;-76
2023/10/24 02:56:19;;;;;;;1.27;0.98;;;;;;;;;;1035994;28;20443;-75
2023/10/24 02:56:49;;;;;;;0.40;0.40;;;;;;;;;;1036008;28;20033;-75
2023/10/24 02:57:20;;;;;;;4.38;2.80;;;;;;;;;;1036698;28;20116;-74
2023/10/24 02:57:52;;;;;;;2.40;2.20;;;;;;;;;;1030196;28;20034;-73
2023/10/24 02:58:25;;;;;;;2.88;2.53;;;;;;;;;;1038996;28;20025;-74
2023/10/24 02:58:56;;;;;;;0.30;0.30;;;;;;;;;;1038679;28;20163;-75
2023/10/24 02:59:26;;;;;;;1.13;1.13;;;;;;;;;;1037100;28;20459;-73
2023/10/24 02:59:57;;;;;;;2.70;2.50;;;;;;;;;;1039063;28;20017;-75
2023/10/24 03:00:29;;;;;;;1.05;0.98;;;;;;;;;;1036544;28;20174;-78
2023/10/24 03:01:06;;;;;;;2.88;1.58;;;;;;;;;;1035628;28;20096;-75
2023/10/24 03:01:37;;;;;;;1.23;1.13;;;;;;;;;;1037085;28;20144;-75
2023/10/24 03:02:08;;;;;;;0.75;0.73;;;;;;;;;;1032905;28;20560;-76
2023/10/24 03:02:39;;;;;;;3.45;3.15;;;;;;;;;;1038984;28;20028;-77
2023/10/24 03:03:09;;;;;;;2.08;0.75;;;;;;;;;;1037835;28;20098;-76
2023/10/24 03:03:42;;;;;;;2.70;1.23;;;;;;;;;;1035598;28;20076;-75
2023/10/24 03:04:13;;;;;;;0.82;0.80;;;;;;;;;;1033236;28;20299;-76
2023/10/24 03:04:43;;;;;;;2.20;2.05;;;;;;;;;;1032844;28;20036;-77
2023/10/24 03:05:14;;;;;;;1.50;1.40;;;;;;;;;;1034956;28;20065;-75